Time;durP1;ratioP1;P1;durP2;ratioP2;P2;SDS_P1;SDS_P2;PMS_P1;PMS_P2;Temp;Humidity;BMP_temperature;BMP_pressure;BME280_temperature;BME280_humidity;BME280_pressure;Samples;Min_cycle;Max_cycle;Signal;HPM_P1;HPM_P2
2022/02/20 00:00:43;;;;;;;9.45;4.10;;;3.60;99.20;;;;;;4959558;28;20537;-95
2022/02/20 00:03:09;;;;;;;7.20;3.80;;;3.60;99.20;;;;;;4959208;28;20047;-94
2022/02/20 00:05:36;;;;;;;8.48;3.63;;;3.50;99.10;;;;;;4959253;28;20054;-94
2022/02/20 00:08:02;;;;;;;7.18;3.45;;;3.50;99.00;;;;;;4959243;28;20362;-95
2022/02/20 00:10:28;;;;;;;6.05;3.17;;;3.50;98.90;;;;;;4959184;28;20023;-95
2022/02/20 00:12:54;;;;;;;8.65;3.45;;;3.50;98.70;;;;;;4958977;28;20073;-95
2022/02/20 00:15:20;;;;;;;6.68;3.20;;;3.60;98.40;;;;;;4959058;28;20116;-95
2022/02/20 00:17:50;;;;;;;5.00;2.80;;;3.60;98.50;;;;;;4959141;28;20045;-96
2022/02/20 00:20:16;;;;;;;5.78;2.67;;;3.60;98.10;;;;;;4958957;28;20469;-94
2022/02/20 00:22:42;;;;;;;4.07;2.78;;;3.60;98.10;;;;;;4959153;28;20038;-94
2022/02/20 00:25:08;;;;;;;5.90;2.60;;;3.60;98.10;;;;;;4959100;28;20118;-95
2022/02/20 00:27:34;;;;;;;6.50;3.00;;;3.60;97.90;;;;;;4959781;28;20474;-95
2022/02/20 00:29:59;;;;;;;5.53;3.50;;;3.60;97.90;;;;;;4958979;28;20050;-96
2022/02/20 00:32:25;;;;;;;6.15;2.83;;;3.50;97.80;;;;;;4959026;28;20029;-95
2022/02/20 00:34:51;;;;;;;5.57;2.88;;;3.50;97.80;;;;;;4958916;28;20113;-95
2022/02/20 00:37:17;;;;;;;8.15;3.00;;;3.50;97.70;;;;;;4958601;28;20035;-95
2022/02/20 00:39:43;;;;;;;6.93;3.00;;;3.50;97.50;;;;;;4958580;28;20037;-95
2022/02/20 00:42:09;;;;;;;6.18;2.88;;;3.50;97.60;;;;;;4958011;28;20028;-95
2022/02/20 00:44:34;;;;;;;9.35;3.28;;;3.50;97.50;;;;;;4958863;28;20069;-95
2022/02/20 00:47:00;;;;;;;5.20;3.10;;;3.40;97.50;;;;;;4958900;28;20019;-95
2022/02/20 00:49:26;;;;;;;6.00;3.00;;;3.40;97.40;;;;;;4958517;28;20217;-93
2022/02/20 00:51:51;;;;;;;5.45;3.00;;;3.40;97.30;;;;;;4958744;28;20033;-94
2022/02/20 00:54:17;;;;;;;10.02;3.38;;;3.40;97.30;;;;;;4958405;28;20073;-95
2022/02/20 00:56:43;;;;;;;4.47;2.75;;;3.40;97.10;;;;;;4958599;28;20030;-94
2022/02/20 00:59:08;;;;;;;9.02;3.17;;;3.40;97.20;;;;;;4958692;28;20035;-94
2022/02/20 01:01:34;;;;;;;5.93;2.83;;;3.40;97.00;;;;;;4958471;28;20055;-94
2022/02/20 01:04:00;;;;;;;6.13;3.08;;;3.40;96.90;;;;;;4958238;28;20109;-94
2022/02/20 01:06:26;;;;;;;6.45;3.08;;;3.40;96.90;;;;;;4958594;28;20025;-93
2022/02/20 01:08:53;;;;;;;7.15;3.13;;;3.30;97.00;;;;;;4958532;28;20045;-96
2022/02/20 01:11:19;;;;;;;5.78;3.25;;;3.30;97.00;;;;;;4958372;28;20378;-95
2022/02/20 01:13:46;;;;;;;4.22;2.58;;;3.20;97.00;;;;;;4958239;28;20030;-95
2022/02/20 01:16:13;;;;;;;6.90;3.05;;;3.30;97.00;;;;;;4958493;28;20025;-95
2022/02/20 01:18:38;;;;;;;5.70;2.53;;;3.30;97.00;;;;;;4958164;28;20023;-96
2022/02/20 01:21:04;;;;;;;4.45;2.67;;;3.20;97.10;;;;;;4958236;28;20035;-95
2022/02/20 01:23:31;;;;;;;6.40;2.88;;;3.20;97.20;;;;;;4958079;28;20034;-95
2022/02/20 01:25:56;;;;;;;6.55;3.00;;;3.20;97.00;;;;;;4958400;28;20146;-95
2022/02/20 01:28:22;;;;;;;5.43;2.72;;;3.10;97.10;;;;;;4958268;28;20055;-95
2022/02/20 01:30:48;;;;;;;7.15;3.90;;;3.10;97.20;;;;;;4958390;28;20026;-95
2022/02/20 01:33:14;;;;;;;12.25;3.42;;;3.10;97.20;;;;;;4958126;28;20110;-95
2022/02/20 01:35:41;;;;;;;5.63;2.90;;;3.10;97.30;;;;;;4958328;28;20042;-95
2022/02/20 01:38:06;;;;;;;5.88;2.70;;;3.00;97.30;;;;;;4957979;28;20041;-96
2022/02/20 01:40:33;;;;;;;9.13;3.08;;;3.00;97.30;;;;;;4958094;28;20470;-95
2022/02/20 01:42:59;;;;;;;8.90;3.15;;;2.90;97.40;;;;;;4958753;28;20023;-95
2022/02/20 01:45:26;;;;;;;8.57;3.30;;;2.90;97.60;;;;;;4958089;28;20031;-94
2022/02/20 01:47:51;;;;;;;11.00;4.13;;;2.80;97.80;;;;;;4958007;28;20101;-95
2022/02/20 01:50:17;;;;;;;14.63;5.13;;;2.80;97.80;;;;;;4958211;28;20031;-95
2022/02/20 01:52:44;;;;;;;12.55;4.47;;;2.70;98.00;;;;;;4958377;28;20027;-96
2022/02/20 01:55:10;;;;;;;12.00;4.57;;;2.70;98.00;;;;;;4961754;28;20099;-95
2022/02/20 01:57:37;;;;;;;12.75;5.03;;;2.60;98.10;;;;;;4961423;28;20081;-95
2022/02/20 02:00:15;;;;;;;11.93;5.25;;;2.60;98.20;;;;;;4961394;28;20027;-95
2022/02/20 02:02:42;;;;;;;12.35;4.85;;;2.60;98.70;;;;;;4978687;28;20034;-95
2022/02/20 02:05:09;;;;;;;8.80;4.13;;;2.50;98.60;;;;;;4961514;28;20473;-96
2022/02/20 02:07:35;;;;;;;16.65;4.20;;;2.50;98.60;;;;;;4961309;28;20023;-94
2022/02/20 02:10:01;;;;;;;8.35;4.13;;;2.50;98.70;;;;;;4961447;28;20034;-95
2022/02/20 02:12:26;;;;;;;9.73;4.10;;;2.50;98.90;;;;;;4961177;28;20031;-96
2022/02/20 02:15:00;;;;;;;8.90;3.40;;;2.40;98.90;;;;;;4961580;28;20026;-94
2022/02/20 02:17:26;;;;;;;9.90;3.22;;;2.50;99.00;;;;;;4961223;28;20085;-95
2022/02/20 02:19:52;;;;;;;9.50;3.30;;;2.40;99.10;;;;;;4961265;28;20101;-95
2022/02/20 02:22:22;;;;;;;10.70;4.00;;;2.40;99.20;;;;;;4961576;28;20520;-95
2022/02/20 02:24:49;;;;;;;11.43;3.38;;;2.30;99.40;;;;;;4961265;28;20034;-95
2022/02/20 02:27:15;;;;;;;8.55;3.83;;;2.30;99.40;;;;;;4960973;28;20027;-95
2022/02/20 02:29:43;;;;;;;9.88;3.80;;;2.30;99.60;;;;;;4961144;28;20031;-95
2022/02/20 02:32:08;;;;;;;11.07;3.75;;;2.30;99.90;;;;;;4960904;28;20034;-95
2022/02/20 02:34:35;;;;;;;12.60;4.10;;;2.20;99.90;;;;;;4960925;28;20031;-95
2022/02/20 02:37:02;;;;;;;10.75;4.20;;;2.20;99.90;;;;;;4961453;28;20054;-95
2022/02/20 02:39:27;;;;;;;9.93;4.13;;;2.20;99.90;;;;;;4960892;28;20105;-94
2022/02/20 02:41:53;;;;;;;5.28;3.10;;;2.20;99.90;;;;;;4960682;28;20041;-95
2022/02/20 02:44:18;;;;;;;5.35;2.95;;;2.20;99.90;;;;;;4960988;28;20026;-95
2022/02/20 02:46:44;;;;;;;5.47;3.35;;;2.20;99.90;;;;;;4960587;28;20027;-96
2022/02/20 02:49:10;;;;;;;9.82;3.80;;;2.30;99.90;;;;;;4960605;28;20473;-95
2022/02/20 02:51:36;;;;;;;7.63;3.58;;;2.20;99.90;;;;;;4960603;28;20074;-95
2022/02/20 02:54:07;;;;;;;11.18;3.90;;;2.30;99.90;;;;;;4960675;28;20027;-95
2022/02/20 02:56:32;;;;;;;;;;;2.30;99.90;;;;;;4960936;28;20046;-95
2022/02/20 02:58:58;;;;;;;9.80;3.55;;;2.30;99.90;;;;;;4961415;28;20332;-96
2022/02/20 03:01:24;;;;;;;7.07;3.60;;;2.30;99.90;;;;;;4960557;28;20050;-95
2022/02/20 03:03:50;;;;;;;5.55;3.30;;;2.30;99.90;;;;;;4960103;28;20049;-95
2022/02/20 03:06:16;;;;;;;6.75;3.28;;;2.30;99.90;;;;;;4959806;28;20030;-96
2022/02/20 03:08:42;;;;;;;7.85;3.58;;;2.40;99.90;;;;;;4960501;28;20023;-96
2022/02/20 03:11:08;;;;;;;5.65;2.90;;;2.40;99.90;;;;;;4960210;28;20027;-96
2022/02/20 03:13:35;;;;;;;8.13;3.42;;;2.40;99.90;;;;;;4960229;28;20022;-94
2022/02/20 03:16:01;;;;;;;11.23;3.85;;;2.40;99.90;;;;;;4960024;28;20026;-95
2022/02/20 03:18:30;;;;;;;6.47;3.33;;;2.40;99.90;;;;;;4960103;28;20026;-95
2022/02/20 03:20:57;;;;;;;7.82;3.72;;;2.40;99.90;;;;;;4960186;28;20027;-95
2022/02/20 03:23:23;;;;;;;9.27;4.00;;;2.50;99.90;;;;;;4960051;28;20027;-95
2022/02/20 03:25:49;;;;;;;7.13;3.25;;;2.50;99.90;;;;;;4960160;28;20117;-94
2022/02/20 03:28:15;;;;;;;6.28;3.33;;;2.50;99.90;;;;;;4960065;28;20066;-94
2022/02/20 03:30:41;;;;;;;7.10;3.50;;;2.50;99.90;;;;;;4960096;28;20081;-96
2022/02/20 03:33:06;;;;;;;8.38;3.55;;;2.50;99.80;;;;;;4959793;28;20062;-94
2022/02/20 03:35:32;;;;;;;6.97;3.10;;;2.50;99.90;;;;;;4959785;28;20058;-94
2022/02/20 03:37:58;;;;;;;10.63;3.35;;;2.50;99.80;;;;;;4959596;28;20093;-95
2022/02/20 03:40:24;;;;;;;7.65;2.83;;;2.40;99.80;;;;;;4959633;28;20037;-95
2022/02/20 03:42:50;;;;;;;7.25;3.50;;;2.40;99.90;;;;;;4959753;28;20377;-95
2022/02/20 03:45:16;;;;;;;7.32;3.63;;;2.40;99.90;;;;;;4959711;28;20023;-95
2022/02/20 03:47:42;;;;;;;8.18;4.25;;;2.30;99.90;;;;;;4959466;28;20492;-96
2022/02/20 03:50:09;;;;;;;7.93;3.45;;;2.30;99.90;;;;;;4960310;28;20453;-95
2022/02/20 03:52:35;;;;;;;5.93;3.50;;;2.30;99.90;;;;;;4959696;28;20031;-95
2022/02/20 03:55:02;;;;;;;7.32;3.78;;;2.20;99.90;;;;;;4959589;28;20054;-95
2022/02/20 03:57:32;;;;;;;9.55;3.72;;;2.20;99.90;;;;;;4959399;28;20026;-94
2022/02/20 03:59:59;;;;;;;5.95;3.20;;;2.20;99.90;;;;;;4959310;28;20031;-94
2022/02/20 04:02:27;;;;;;;7.18;3.30;;;2.30;99.90;;;;;;4959239;28;20034;-94
2022/02/20 04:04:54;;;;;;;7.40;3.95;;;2.20;99.90;;;;;;4959180;28;20043;-95
2022/02/20 04:07:20;;;;;;;7.15;4.03;;;2.20;99.90;;;;;;4959232;28;20054;-95
2022/02/20 04:09:45;;;;;;;14.43;5.80;;;2.20;99.90;;;;;;4959188;28;20094;-95
2022/02/20 04:12:11;;;;;;;10.48;4.53;;;2.20;99.90;;;;;;4959094;28;20078;-94
2022/02/20 04:14:37;;;;;;;10.73;5.45;;;2.20;99.90;;;;;;4959071;28;20082;-94
2022/02/20 04:17:03;;;;;;;11.38;5.10;;;2.10;99.90;;;;;;4958147;28;20518;-95
2022/02/20 04:19:28;;;;;;;10.20;4.63;;;2.20;99.90;;;;;;4958874;28;20038;-95
2022/02/20 04:21:54;;;;;;;13.95;5.32;;;2.20;99.90;;;;;;4958911;28;20086;-95
2022/02/20 04:24:20;;;;;;;16.73;5.80;;;2.20;99.90;;;;;;4958724;28;20031;-95
2022/02/20 04:26:46;;;;;;;13.80;5.10;;;2.20;99.90;;;;;;4959032;28;20086;-96
2022/02/20 04:29:11;;;;;;;8.45;4.00;;;2.20;99.90;;;;;;4958979;28;20077;-95
2022/02/20 04:31:37;;;;;;;13.63;4.70;;;2.10;99.90;;;;;;4958787;28;20509;-95
2022/02/20 04:34:03;;;;;;;12.10;4.68;;;2.10;99.90;;;;;;4959566;28;20073;-95
2022/02/20 04:36:34;;;;;;;12.48;5.30;;;2.10;99.90;;;;;;4958622;28;20490;-95
2022/02/20 04:39:04;;;;;;;8.10;4.43;;;2.10;99.90;;;;;;4958789;28;20023;-95
2022/02/20 04:41:31;;;;;;;7.00;3.30;;;2.00;99.90;;;;;;4958647;28;20070;-95
2022/02/20 04:43:57;;;;;;;10.52;4.88;;;2.00;99.90;;;;;;4958613;28;20536;-96
2022/02/20 04:46:23;;;;;;;13.18;6.32;;;2.00;99.90;;;;;;4959068;28;20489;-94
2022/02/20 04:48:50;;;;;;;12.20;5.55;;;2.00;99.90;;;;;;4958946;28;20547;-96
2022/02/20 04:51:15;;;;;;;8.75;5.43;;;2.00;99.90;;;;;;4958616;28;20537;-95
2022/02/20 04:53:41;;;;;;;13.07;6.43;;;2.00;99.90;;;;;;4958696;28;20023;-95
2022/02/20 04:56:07;;;;;;;8.73;5.07;;;2.00;99.90;;;;;;4958537;28;20380;-96
2022/02/20 04:58:33;;;;;;;9.23;5.00;;;1.90;99.90;;;;;;4958478;28;20027;-95
2022/02/20 05:00:58;;;;;;;10.60;4.53;;;2.00;99.90;;;;;;4958456;28;20477;-96
2022/02/20 05:03:24;;;;;;;8.20;4.38;;;1.90;99.90;;;;;;4958299;28;20078;-95
2022/02/20 05:05:50;;;;;;;10.48;4.25;;;1.90;99.90;;;;;;4958401;28;20023;-95
2022/02/20 05:08:15;;;;;;;11.80;3.92;;;1.90;99.90;;;;;;4958368;28;20034;-95
2022/02/20 05:10:41;;;;;;;6.30;3.40;;;2.00;99.90;;;;;;4958686;28;20034;-95
2022/02/20 05:13:07;;;;;;;7.93;3.80;;;2.00;99.90;;;;;;4958456;28;20394;-95
2022/02/20 05:15:33;;;;;;;7.43;4.13;;;2.00;99.90;;;;;;4958247;28;20034;-96
2022/02/20 05:17:58;;;;;;;10.57;4.53;;;2.00;99.90;;;;;;4958345;28;20095;-96
2022/02/20 05:20:24;;;;;;;7.88;3.97;;;1.90;99.90;;;;;;4958177;28;20540;-96
2022/02/20 05:22:50;;;;;;;8.23;3.67;;;2.00;99.90;;;;;;4958356;28;20073;-96
2022/02/20 05:25:17;;;;;;;9.35;3.47;;;1.90;99.90;;;;;;4958353;28;20109;-95
2022/02/20 05:27:43;;;;;;;10.57;4.10;;;2.00;99.90;;;;;;4958429;28;20512;-94
2022/02/20 05:30:10;;;;;;;9.35;4.40;;;2.00;99.90;;;;;;4961915;28;20030;-96
2022/02/20 05:32:36;;;;;;;10.73;5.53;;;2.00;99.90;;;;;;4962024;28;20027;-94
2022/02/20 05:35:02;;;;;;;17.02;9.52;;;2.00;99.90;;;;;;4962184;28;20026;-94
2022/02/20 05:37:28;;;;;;;34.95;22.98;;;2.00;99.90;;;;;;4961926;28;20146;-94
2022/02/20 05:39:53;;;;;;;43.90;24.33;;;2.10;99.90;;;;;;4961912;28;20094;-95
2022/02/20 05:42:19;;;;;;;27.15;15.57;;;2.10;99.90;;;;;;4961952;28;20381;-94
2022/02/20 05:44:45;;;;;;;21.42;10.52;;;2.10;99.90;;;;;;4961708;28;20029;-96
2022/02/20 05:47:12;;;;;;;19.90;8.38;;;2.10;99.90;;;;;;4961795;28;20027;-95
2022/02/20 05:49:38;;;;;;;16.42;8.68;;;2.20;99.90;;;;;;4961740;28;20114;-95
2022/02/20 05:52:04;;;;;;;14.50;7.95;;;2.20;99.90;;;;;;4961586;28;20118;-95
2022/02/20 05:54:30;;;;;;;15.07;7.00;;;2.20;99.90;;;;;;4962105;28;20031;-95
2022/02/20 05:56:55;;;;;;;13.93;6.47;;;2.20;99.90;;;;;;4961685;28;20552;-94
2022/02/20 05:59:21;;;;;;;13.75;6.45;;;2.30;99.90;;;;;;4961449;28;20027;-94
2022/02/20 06:01:47;;;;;;;14.32;5.05;;;2.30;99.90;;;;;;4961640;28;20031;-95
2022/02/20 06:04:12;;;;;;;12.25;5.25;;;2.30;99.90;;;;;;4961469;28;20046;-95
2022/02/20 06:06:38;;;;;;;11.38;4.93;;;2.30;99.90;;;;;;4961468;28;20452;-94
2022/02/20 06:09:04;;;;;;;13.55;5.07;;;2.40;99.90;;;;;;4961773;28;20374;-94
2022/02/20 06:11:30;;;;;;;14.93;6.10;;;2.40;99.90;;;;;;4961370;28;20023;-94
2022/02/20 06:13:56;;;;;;;12.20;6.10;;;2.40;99.90;;;;;;4961234;28;20023;-94
2022/02/20 06:16:22;;;;;;;14.43;5.63;;;2.50;99.90;;;;;;4961905;28;20023;-95
2022/02/20 06:18:48;;;;;;;11.88;5.70;;;2.50;99.90;;;;;;4961687;28;20347;-94
2022/02/20 06:21:14;;;;;;;13.75;5.50;;;2.50;99.90;;;;;;4961313;28;20030;-95
2022/02/20 06:23:40;;;;;;;13.27;5.80;;;2.60;99.90;;;;;;4961123;28;20039;-94
2022/02/20 06:26:06;;;;;;;10.95;4.88;;;2.70;99.90;;;;;;4961147;28;20027;-93
2022/02/20 06:28:32;;;;;;;16.63;6.38;;;2.70;99.90;;;;;;4961175;28;20027;-93
2022/02/20 06:30:58;;;;;;;14.20;6.00;;;2.80;99.90;;;;;;4961029;28;20107;-94
2022/02/20 06:33:24;;;;;;;22.92;10.25;;;2.80;99.90;;;;;;4961000;28;20035;-94
2022/02/20 06:35:49;;;;;;;24.50;9.88;;;2.90;99.90;;;;;;4978034;28;20027;-94
2022/02/20 06:38:15;;;;;;;19.20;7.22;;;3.00;99.90;;;;;;4960843;28;20062;-95
2022/02/20 06:40:41;;;;;;;10.60;6.35;;;3.00;99.90;;;;;;4959976;28;20029;-96
2022/02/20 06:43:06;;;;;;;14.85;7.97;;;3.10;99.90;;;;;;4960743;28;20027;-94
2022/02/20 06:45:32;;;;;;;11.98;5.47;;;3.10;99.90;;;;;;4960665;28;20019;-94
2022/02/20 06:47:58;;;;;;;11.25;4.57;;;3.20;99.90;;;;;;4960633;28;20027;-93
2022/02/20 06:50:24;;;;;;;10.00;4.65;;;3.20;99.90;;;;;;4960605;28;20027;-94
2022/02/20 06:52:49;;;;;;;8.85;3.75;;;3.30;99.90;;;;;;4960659;28;20085;-94
2022/02/20 06:55:15;;;;;;;6.78;3.72;;;3.40;99.90;;;;;;4960446;28;20026;-94
2022/02/20 06:57:41;;;;;;;8.00;4.00;;;3.50;99.90;;;;;;4960747;28;20026;-95
2022/02/20 07:00:11;;;;;;;9.93;4.38;;;3.50;99.90;;;;;;4960307;28;20035;-94
2022/02/20 07:02:37;;;;;;;7.50;3.73;;;3.60;99.90;;;;;;4960493;28;20397;-93
2022/02/20 07:05:05;;;;;;;9.90;3.88;;;3.70;99.90;;;;;;4960590;28;20268;-93
2022/02/20 07:07:30;;;;;;;7.70;3.33;;;3.70;99.70;;;;;;4959516;28;20062;-94
2022/02/20 07:09:56;;;;;;;8.02;3.50;;;3.80;99.40;;;;;;4960054;28;20041;-94
2022/02/20 07:12:22;;;;;;;12.15;5.35;;;3.90;99.30;;;;;;4960334;28;20093;-95
2022/02/20 07:14:47;;;;;;;11.75;4.70;;;3.90;99.20;;;;;;4960155;28;20065;-95
2022/02/20 07:17:13;;;;;;;14.20;6.72;;;4.00;98.90;;;;;;4960316;28;20444;-94
2022/02/20 07:19:39;;;;;;;14.93;7.03;;;4.00;98.80;;;;;;4959881;28;20027;-95
2022/02/20 07:22:05;;;;;;;12.63;6.65;;;4.00;98.80;;;;;;4960113;28;20023;-94
2022/02/20 07:24:30;;;;;;;16.10;7.05;;;4.00;98.50;;;;;;4960242;28;20073;-91
2022/02/20 07:26:56;;;;;;;7.80;3.95;;;4.10;98.40;;;;;;4960468;28;20501;-94
2022/02/20 07:29:22;;;;;;;6.95;3.05;;;4.20;98.20;;;;;;4959923;28;20395;-93
2022/02/20 07:31:48;;;;;;;7.72;3.78;;;4.20;97.90;;;;;;4959812;28;20034;-93
2022/02/20 07:34:14;;;;;;;10.02;3.15;;;4.20;98.00;;;;;;4960133;28;20023;-93
2022/02/20 07:36:41;;;;;;;6.50;3.42;;;4.30;97.60;;;;;;4959733;28;20038;-95
2022/02/20 07:39:11;;;;;;;6.57;3.22;;;4.30;97.60;;;;;;4959609;28;20532;-93
2022/02/20 07:41:37;;;;;;;10.20;3.57;;;4.30;97.80;;;;;;4959751;28;20031;-91
2022/02/20 07:44:04;;;;;;;6.93;3.50;;;4.30;97.50;;;;;;4959542;28;20026;-95
2022/02/20 07:46:31;;;;;;;5.28;3.10;;;4.30;97.50;;;;;;4959604;28;20457;-92
2022/02/20 07:48:59;;;;;;;6.35;3.72;;;4.40;97.60;;;;;;4960488;28;20054;-94
2022/02/20 07:51:26;;;;;;;8.57;3.42;;;4.40;97.50;;;;;;4959515;28;20062;-94
2022/02/20 07:53:53;;;;;;;5.93;3.13;;;4.40;97.50;;;;;;4959663;28;20382;-96
2022/02/20 07:56:19;;;;;;;6.80;3.15;;;4.40;97.50;;;;;;4959664;28;20030;-94
2022/02/20 07:58:45;;;;;;;5.50;3.30;;;4.40;97.60;;;;;;4959402;28;20031;-92
2022/02/20 08:01:11;;;;;;;7.65;3.40;;;4.40;97.50;;;;;;4976369;28;20549;-93
2022/02/20 08:03:38;;;;;;;7.47;3.60;;;4.40;97.40;;;;;;4959011;28;20105;-93
2022/02/20 08:06:04;;;;;;;6.60;4.82;;;4.50;97.50;;;;;;4959392;28;20065;-94
2022/02/20 08:08:31;;;;;;;6.22;3.33;;;4.50;97.60;;;;;;4959218;28;20445;-94
2022/02/20 08:10:57;;;;;;;5.82;3.42;;;4.50;97.30;;;;;;4959303;28;20030;-92
2022/02/20 08:13:23;;;;;;;8.00;3.72;;;4.60;97.30;;;;;;4958970;28;20026;-94
2022/02/20 08:15:49;;;;;;;10.18;3.20;;;4.60;97.30;;;;;;4959009;28;20038;-90
2022/02/20 08:18:15;;;;;;;5.63;2.85;;;4.70;97.30;;;;;;4958885;28;20496;-92
2022/02/20 08:20:41;;;;;;;6.95;3.22;;;4.70;97.00;;;;;;4958787;28;20023;-93
2022/02/20 08:23:08;;;;;;;8.65;3.30;;;4.70;97.10;;;;;;4958841;28;20022;-92
2022/02/20 08:25:38;;;;;;;9.05;3.78;;;4.80;96.70;;;;;;4958646;28;20034;-92
2022/02/20 08:28:04;;;;;;;6.95;3.53;;;4.80;96.50;;;;;;4958701;28;20126;-93
2022/02/20 08:30:29;;;;;;;7.63;2.67;;;4.80;96.20;;;;;;4958883;28;20441;-94
2022/02/20 08:32:55;;;;;;;7.47;3.40;;;4.80;96.10;;;;;;4958902;28;20038;-92
2022/02/20 08:35:21;;;;;;;8.43;3.83;;;4.80;96.10;;;;;;4959100;28;20370;-91
2022/02/20 08:37:46;;;;;;;4.57;3.05;;;4.90;96.20;;;;;;4958732;28;20366;-94
2022/02/20 08:40:15;;;;;;;7.35;2.92;;;4.90;96.00;;;;;;4959181;28;20042;-92
2022/02/20 08:42:41;;;;;;;5.40;3.05;;;5.00;95.80;;;;;;4958448;28;20088;-93
2022/02/20 08:45:08;;;;;;;9.75;2.90;;;5.00;95.40;;;;;;4976065;28;20038;-93
2022/02/20 08:47:33;;;;;;;6.93;3.72;;;5.10;95.50;;;;;;4958484;28;20031;-92
2022/02/20 08:50:00;;;;;;;7.18;2.90;;;5.10;95.60;;;;;;4958653;28;20450;-93
2022/02/20 08:52:27;;;;;;;6.47;3.40;;;5.10;95.50;;;;;;4958438;28;20050;-94
2022/02/20 08:54:52;;;;;;;6.72;3.22;;;5.10;95.40;;;;;;4958605;28;20169;-93
2022/02/20 08:57:18;;;;;;;7.57;3.42;;;5.20;95.40;;;;;;4958579;28;20517;-93
2022/02/20 08:59:44;;;;;;;6.97;3.20;;;5.20;95.20;;;;;;4958963;28;20064;-91
2022/02/20 09:02:11;;;;;;;4.60;3.00;;;5.20;95.20;;;;;;4958274;28;20114;-92
2022/02/20 09:04:38;;;;;;;9.95;3.75;;;5.30;95.10;;;;;;4957979;28;20130;-92
2022/02/20 09:07:05;;;;;;;11.77;3.72;;;5.30;95.00;;;;;;4958094;28;20050;-94
2022/02/20 09:09:31;;;;;;;9.38;3.53;;;5.40;95.10;;;;;;4958665;28;20054;-92
2022/02/20 09:11:57;;;;;;;5.38;3.20;;;5.40;94.60;;;;;;4975436;28;20422;-93
2022/02/20 09:14:23;;;;;;;8.52;4.40;;;5.40;94.50;;;;;;4958358;28;20027;-91
2022/02/20 09:16:48;;;;;;;7.80;3.38;;;5.40;94.70;;;;;;4958163;28;20031;-92
2022/02/20 09:19:14;;;;;;;9.85;3.58;;;5.50;94.70;;;;;;4958426;28;20546;-93
2022/02/20 09:21:40;;;;;;;5.95;3.58;;;5.50;94.40;;;;;;4958265;28;20073;-94
2022/02/20 09:24:06;;;;;;;6.95;3.40;;;5.50;94.40;;;;;;4958444;28;20097;-94
2022/02/20 09:26:32;;;;;;;9.27;3.30;;;5.60;94.60;;;;;;4958258;28;20081;-91
2022/02/20 09:28:58;;;;;;;11.73;4.57;;;5.60;94.40;;;;;;4958248;28;20019;-92
2022/02/20 09:31:24;;;;;;;9.60;3.72;;;5.60;94.30;;;;;;4958034;28;20023;-94
2022/02/20 09:33:50;;;;;;;4.63;2.97;;;5.60;94.50;;;;;;4958173;28;20035;-91
2022/02/20 09:36:15;;;;;;;6.63;3.08;;;5.60;94.20;;;;;;4958123;28;20303;-94
2022/02/20 09:38:42;;;;;;;6.90;3.13;;;5.70;94.20;;;;;;4958094;28;20031;-93
2022/02/20 09:41:08;;;;;;;9.98;3.13;;;5.60;94.50;;;;;;4957849;28;20035;-93
2022/02/20 09:43:35;;;;;;;9.32;3.22;;;5.70;94.30;;;;;;4957958;28;20050;-93
2022/02/20 09:46:02;;;;;;;7.00;3.30;;;5.70;94.30;;;;;;4958149;28;20023;-95
2022/02/20 09:48:28;;;;;;;7.82;3.53;;;5.80;93.60;;;;;;4958245;28;20377;-93
2022/02/20 09:50:54;;;;;;;10.38;2.90;;;5.70;93.50;;;;;;4957943;28;20125;-94
2022/02/20 09:53:20;;;;;;;8.77;3.28;;;5.70;93.30;;;;;;4958006;28;20026;-94
2022/02/20 09:55:47;;;;;;;6.90;3.20;;;5.70;93.60;;;;;;4957562;28;20027;-93
2022/02/20 09:58:15;;;;;;;6.13;3.10;;;5.70;94.00;;;;;;4957668;28;20030;-94
2022/02/20 10:00:54;;;;;;;5.38;3.10;;;5.80;93.80;;;;;;4958083;28;20030;-93
2022/02/20 10:03:28;;;;;;;6.82;3.13;;;5.90;93.70;;;;;;4957756;28;20478;-93
2022/02/20 10:05:53;;;;;;;5.35;3.10;;;6.00;93.20;;;;;;4957624;28;20429;-94
2022/02/20 10:08:19;;;;;;;6.22;3.08;;;6.00;92.80;;;;;;4957750;28;20023;-93
2022/02/20 10:10:45;;;;;;;7.07;3.50;;;6.10;92.50;;;;;;4957821;28;20077;-93
2022/02/20 10:13:11;;;;;;;5.57;2.92;;;6.10;92.40;;;;;;4957881;28;20038;-93
2022/02/20 10:15:41;;;;;;;25.83;11.65;;;6.10;92.10;;;;;;4959048;28;20133;-93
2022/02/20 10:18:13;;;;;;;21.20;9.40;;;6.10;92.20;;;;;;4961179;28;20085;-92
2022/02/20 10:20:39;;;;;;;23.90;11.15;;;6.20;91.90;;;;;;4960866;28;20055;-92
2022/02/20 10:23:06;;;;;;;10.55;4.38;;;6.20;91.90;;;;;;4960845;28;20022;-93
2022/02/20 10:25:32;;;;;;;8.05;3.35;;;6.20;92.00;;;;;;4961005;28;20022;-94
2022/02/20 10:27:58;;;;;;;6.00;2.40;;;6.20;92.10;;;;;;4960731;28;20033;-93
2022/02/20 10:30:26;;;;;;;12.45;4.70;;;6.20;91.90;;;;;;4960797;28;20031;-93
2022/02/20 10:33:11;;;;;;;12.75;5.90;;;6.30;91.80;;;;;;4960770;28;20026;-93
2022/02/20 10:35:42;;;;;;;5.50;3.05;;;6.30;91.40;;;;;;4961126;28;20034;-90
2022/02/20 10:38:15;;;;;;;3.70;2.50;;;6.30;91.20;;;;;;4960780;28;20038;-91
2022/02/20 10:40:43;;;;;;;5.78;2.30;;;6.30;91.10;;;;;;4960852;28;20025;-93
2022/02/20 10:43:24;;;;;;;4.63;2.25;;;6.40;90.70;;;;;;4960637;28;20019;-93
2022/02/20 10:46:04;;;;;;;7.30;2.75;;;6.40;91.30;;;;;;4961194;28;20421;-92
2022/02/20 10:48:41;;;;;;;4.43;2.45;;;6.40;90.70;;;;;;4960658;28;20057;-94
2022/02/20 10:51:06;;;;;;;8.63;3.03;;;6.50;90.60;;;;;;4960573;28;20030;-93
2022/02/20 10:53:32;;;;;;;6.32;2.65;;;6.50;90.70;;;;;;4960228;28;20038;-93
2022/02/20 10:55:59;;;;;;;6.68;2.30;;;6.50;90.70;;;;;;4960272;28;20031;-93
2022/02/20 10:58:30;;;;;;;4.70;2.45;;;6.50;90.60;;;;;;4977879;28;20022;-93
2022/02/20 11:00:58;;;;;;;14.95;5.32;;;6.50;90.50;;;;;;4977550;28;20027;-94
2022/02/20 11:03:28;;;;;;;9.93;3.40;;;6.50;90.60;;;;;;4960152;28;20051;-93
2022/02/20 11:05:55;;;;;;;7.95;3.20;;;6.60;90.60;;;;;;4960300;28;20114;-91
2022/02/20 11:08:23;;;;;;;7.05;3.97;;;6.60;88.70;;;;;;4960088;28;20367;-93
2022/02/20 11:10:50;;;;;;;5.05;3.40;;;6.70;87.30;;;;;;4959899;28;20545;-95
2022/02/20 11:13:17;;;;;;;4.55;2.67;;;6.70;86.90;;;;;;4960476;28;20031;-91
2022/02/20 11:15:44;;;;;;;3.40;2.25;;;6.70;86.40;;;;;;4960178;28;20540;-91
2022/02/20 11:18:16;;;;;;;7.82;3.05;;;6.70;86.20;;;;;;4960322;28;20389;-92
2022/02/20 11:20:45;;;;;;;3.05;2.33;;;6.70;86.40;;;;;;4961815;28;20393;-95
2022/02/20 11:23:15;;;;;;;4.68;2.60;;;6.80;85.70;;;;;;4982479;28;20105;-96
2022/02/20 11:25:51;;;;;;;3.42;2.63;;;6.80;86.30;;;;;;4979247;28;20034;-95
2022/02/20 11:28:19;;;;;;;7.15;2.80;;;6.80;86.30;;;;;;4962036;28;20038;-95
2022/02/20 11:30:45;;;;;;;6.22;2.40;;;6.90;85.50;;;;;;4963940;28;20031;-94
2022/02/20 11:33:12;;;;;;;7.80;2.83;;;6.90;84.60;;;;;;4961866;28;20035;-92
2022/02/20 11:35:52;;;;;;;3.88;2.40;;;7.00;84.60;;;;;;4963615;28;20030;-96
2022/02/20 11:38:25;;;;;;;3.65;2.35;;;7.10;84.20;;;;;;4963102;28;20030;-95
2022/02/20 11:41:08;;;;;;;5.68;2.28;;;7.10;84.40;;;;;;4980326;28;20038;-93
2022/02/20 11:43:45;;;;;;;5.90;2.72;;;7.10;83.50;;;;;;4961410;28;20540;-95
2022/02/20 11:46:22;;;;;;;7.13;3.08;;;7.20;84.00;;;;;;4960107;28;20023;-92
2022/02/20 11:49:02;;;;;;;6.65;2.65;;;7.30;84.60;;;;;;4961590;28;20474;-92
2022/02/20 11:51:30;;;;;;;5.10;2.55;;;7.40;84.80;;;;;;4960443;28;20066;-89
2022/02/20 11:54:21;;;;;;;7.22;2.95;;;7.50;84.50;;;;;;4961049;28;20027;-96
2022/02/20 11:57:38;;;;;;;3.33;2.78;;;7.60;83.50;;;;;;4964624;28;20039;-96
2022/02/20 12:03:17;;;;;;;6.22;3.25;;;7.80;82.30;;;;;;5000011;23;20112;-96
2022/02/20 12:06:03;;;;;;;5.70;2.92;;;7.90;81.80;;;;;;4982985;28;20117;-94
2022/02/20 12:08:34;;;;;;;5.07;2.83;;;7.90;82.00;;;;;;4983020;28;20034;-94
2022/02/20 12:11:12;;;;;;;10.65;3.60;;;8.00;81.70;;;;;;4980987;28;20121;-94
2022/02/20 12:14:00;;;;;;;6.05;3.08;;;8.00;81.60;;;;;;4981178;28;20030;-92
2022/02/20 12:16:31;;;;;;;7.72;3.08;;;8.10;81.50;;;;;;4980282;28;20026;-92
2022/02/20 12:19:07;;;;;;;3.00;2.38;;;8.10;80.40;;;;;;4980787;28;20022;-91
2022/02/20 12:21:34;;;;;;;5.70;3.10;;;8.10;80.20;;;;;;4981755;28;20039;-93
2022/02/20 12:24:17;;;;;;;5.90;2.90;;;8.10;79.50;;;;;;4980041;28;20026;-92
2022/02/20 12:26:58;;;;;;;5.50;2.40;;;8.10;78.60;;;;;;4969624;28;20026;-92
2022/02/20 12:29:39;;;;;;;6.07;3.42;;;8.10;78.20;;;;;;4960893;28;20031;-96
2022/02/20 12:32:06;;;;;;;;;;;8.10;78.10;;;;;;4961365;28;20046;-95
2022/02/20 12:35:11;;;;;;;8.43;3.80;;;8.10;78.50;;;;;;4962034;28;19906;-96
2022/02/20 12:37:50;;;;;;;4.95;2.78;;;8.10;78.40;;;;;;4980564;28;20511;-92
2022/02/20 12:40:34;;;;;;;5.90;3.20;;;8.10;78.80;;;;;;4968228;28;20033;-94
2022/02/20 12:43:07;;;;;;;8.68;3.92;;;8.10;77.80;;;;;;4971777;28;20023;-91
2022/02/20 12:45:39;;;;;;;7.10;4.00;;;8.10;78.60;;;;;;4965541;28;20421;-96
2022/02/20 12:48:07;;;;;;;8.80;3.60;;;8.10;77.80;;;;;;4966374;28;20110;-89
2022/02/20 12:50:43;;;;;;;15.43;8.02;;;8.10;77.00;;;;;;4966643;28;20037;-94
2022/02/20 12:53:10;;;;;;;8.02;3.75;;;8.20;76.20;;;;;;4962173;28;20118;-92
2022/02/20 12:55:37;;;;;;;8.77;4.30;;;8.10;75.60;;;;;;4966617;28;20029;-92
2022/02/20 12:58:06;;;;;;;12.57;6.00;;;8.20;76.50;;;;;;4965125;28;20041;-89
2022/02/20 13:00:34;;;;;;;11.40;5.90;;;8.10;76.40;;;;;;4968229;28;20030;-91